ΕΜΥ, Εθνική Μετεωρολογική Υπηρεσία - Δελτία Καιρού, Προγνώσεις

ΑΕΡΟΝΑΥΤΙΛΙΑ

GREEK AIRPORTS CODES

LGAV 260950Z 08006KT 040V120 9999 FEW020 23/10 Q1015 RMK SCT180 NOSIG=

EUROPEAN AIRPORTS CODES

LFPO 260930Z 23011KT 190V250 9999 FEW015 11/08 Q1005 NOSIG=